sensor_id;sensor_type;location;lat;lon;timestamp;P1;durP1;ratioP1;P2;durP2;ratioP2
73869;SDS011;64924;42.140;24.762;2023-02-28T00:00:24;14.85;;;9.10;;
73869;SDS011;64924;42.140;24.762;2023-02-28T00:02:50;17.67;;;9.85;;
73869;SDS011;64924;42.140;24.762;2023-02-28T00:05:18;21.00;;;8.80;;
73869;SDS011;64924;42.140;24.762;2023-02-28T00:07:45;15.27;;;8.60;;
73869;SDS011;64924;42.140;24.762;2023-02-28T00:10:13;17.63;;;9.88;;
73869;SDS011;64924;42.140;24.762;2023-02-28T00:12:40;16.27;;;8.38;;
73869;SDS011;64924;42.140;24.762;2023-02-28T00:15:09;16.48;;;8.00;;
73869;SDS011;64924;42.140;24.762;2023-02-28T00:17:35;14.88;;;7.68;;
73869;SDS011;64924;42.140;24.762;2023-02-28T00:20:02;15.50;;;8.63;;
73869;SDS011;64924;42.140;24.762;2023-02-28T00:22:29;19.67;;;8.30;;
73869;SDS011;64924;42.140;24.762;2023-02-28T00:24:55;20.38;;;8.38;;
73869;SDS011;64924;42.140;24.762;2023-02-28T00:27:21;17.60;;;7.93;;
73869;SDS011;64924;42.140;24.762;2023-02-28T00:29:47;17.00;;;8.13;;
73869;SDS011;64924;42.140;24.762;2023-02-28T00:32:12;13.35;;;7.65;;
73869;SDS011;64924;42.140;24.762;2023-02-28T00:34:38;18.58;;;8.35;;
73869;SDS011;64924;42.140;24.762;2023-02-28T00:37:05;18.35;;;8.48;;
73869;SDS011;64924;42.140;24.762;2023-02-28T00:39:35;16.80;;;8.18;;
73869;SDS011;64924;42.140;24.762;2023-02-28T00:42:02;17.70;;;9.02;;
73869;SDS011;64924;42.140;24.762;2023-02-28T00:44:28;18.88;;;9.55;;
73869;SDS011;64924;42.140;24.762;2023-02-28T00:46:54;16.17;;;8.10;;
73869;SDS011;64924;42.140;24.762;2023-02-28T00:49:21;17.45;;;8.68;;
73869;SDS011;64924;42.140;24.762;2023-02-28T00:51:47;18.63;;;8.30;;
73869;SDS011;64924;42.140;24.762;2023-02-28T00:54:13;17.75;;;7.60;;
73869;SDS011;64924;42.140;24.762;2023-02-28T00:56:38;23.63;;;9.57;;
73869;SDS011;64924;42.140;24.762;2023-02-28T00:59:04;20.13;;;8.60;;
73869;SDS011;64924;42.140;24.762;2023-02-28T01:01:29;20.70;;;9.13;;
73869;SDS011;64924;42.140;24.762;2023-02-28T01:03:55;17.33;;;8.50;;
73869;SDS011;64924;42.140;24.762;2023-02-28T01:06:21;20.27;;;9.05;;
73869;SDS011;64924;42.140;24.762;2023-02-28T01:08:46;18.52;;;8.57;;
73869;SDS011;64924;42.140;24.762;2023-02-28T01:11:12;16.42;;;7.90;;
73869;SDS011;64924;42.140;24.762;2023-02-28T01:13:40;17.85;;;8.52;;
73869;SDS011;64924;42.140;24.762;2023-02-28T01:16:06;19.17;;;8.07;;
73869;SDS011;64924;42.140;24.762;2023-02-28T01:18:32;21.88;;;8.23;;
73869;SDS011;64924;42.140;24.762;2023-02-28T01:20:57;24.67;;;9.35;;
73869;SDS011;64924;42.140;24.762;2023-02-28T01:23:23;14.55;;;8.52;;
73869;SDS011;64924;42.140;24.762;2023-02-28T01:25:52;14.95;;;7.85;;
73869;SDS011;64924;42.140;24.762;2023-02-28T01:28:18;35.45;;;10.10;;
73869;SDS011;64924;42.140;24.762;2023-02-28T01:30:47;34.90;;;11.00;;
73869;SDS011;64924;42.140;24.762;2023-02-28T01:33:13;30.15;;;9.93;;
73869;SDS011;64924;42.140;24.762;2023-02-28T01:35:39;26.95;;;8.85;;
73869;SDS011;64924;42.140;24.762;2023-02-28T01:38:04;30.90;;;8.40;;
73869;SDS011;64924;42.140;24.762;2023-02-28T01:40:30;22.20;;;8.82;;
73869;SDS011;64924;42.140;24.762;2023-02-28T01:42:55;24.67;;;7.88;;
73869;SDS011;64924;42.140;24.762;2023-02-28T01:47:50;17.48;;;8.05;;
73869;SDS011;64924;42.140;24.762;2023-02-28T01:50:20;18.23;;;7.60;;
73869;SDS011;64924;42.140;24.762;2023-02-28T01:52:48;14.07;;;7.30;;
73869;SDS011;64924;42.140;24.762;2023-02-28T01:55:16;19.98;;;8.18;;
73869;SDS011;64924;42.140;24.762;2023-02-28T01:57:45;16.73;;;7.07;;
73869;SDS011;64924;42.140;24.762;2023-02-28T02:02:44;13.68;;;7.40;;
73869;SDS011;64924;42.140;24.762;2023-02-28T02:05:17;19.40;;;7.00;;
73869;SDS011;64924;42.140;24.762;2023-02-28T02:07:45;15.50;;;8.27;;
73869;SDS011;64924;42.140;24.762;2023-02-28T02:10:35;20.15;;;8.52;;
73869;SDS011;64924;42.140;24.762;2023-02-28T02:18:54;25.80;;;9.68;;
73869;SDS011;64924;42.140;24.762;2023-02-28T02:32:48;19.05;;;8.95;;
73869;SDS011;64924;42.140;24.762;2023-02-28T02:35:32;23.85;;;9.73;;
73869;SDS011;64924;42.140;24.762;2023-02-28T02:43:19;22.23;;;10.73;;
73869;SDS011;64924;42.140;24.762;2023-02-28T02:45:57;21.77;;;10.38;;
73869;SDS011;64924;42.140;24.762;2023-02-28T02:48:29;25.25;;;11.90;;
73869;SDS011;64924;42.140;24.762;2023-02-28T02:50:59;20.48;;;11.07;;
73869;SDS011;64924;42.140;24.762;2023-02-28T02:53:32;19.73;;;10.50;;
73869;SDS011;64924;42.140;24.762;2023-02-28T02:56:02;23.67;;;10.63;;
73869;SDS011;64924;42.140;24.762;2023-02-28T02:58:31;25.35;;;11.18;;
73869;SDS011;64924;42.140;24.762;2023-02-28T03:01:06;21.15;;;11.40;;
73869;SDS011;64924;42.140;24.762;2023-02-28T03:03:36;25.52;;;10.98;;
73869;SDS011;64924;42.140;24.762;2023-02-28T03:06:02;22.73;;;11.65;;
73869;SDS011;64924;42.140;24.762;2023-02-28T03:08:29;31.45;;;12.15;;
73869;SDS011;64924;42.140;24.762;2023-02-28T03:10:59;24.30;;;12.10;;
73869;SDS011;64924;42.140;24.762;2023-02-28T03:27:07;26.83;;;13.52;;
73869;SDS011;64924;42.140;24.762;2023-02-28T03:30:10;16.52;;;9.75;;
73869;SDS011;64924;42.140;24.762;2023-02-28T03:32:40;31.50;;;13.38;;
73869;SDS011;64924;42.140;24.762;2023-02-28T03:35:23;23.55;;;14.48;;
73869;SDS011;64924;42.140;24.762;2023-02-28T03:37:52;35.72;;;14.98;;
73869;SDS011;64924;42.140;24.762;2023-02-28T03:40:25;32.95;;;14.75;;
73869;SDS011;64924;42.140;24.762;2023-02-28T03:42:57;30.63;;;14.02;;
73869;SDS011;64924;42.140;24.762;2023-02-28T03:45:28;22.27;;;12.57;;
73869;SDS011;64924;42.140;24.762;2023-02-28T03:50:37;25.55;;;14.65;;
73869;SDS011;64924;42.140;24.762;2023-02-28T03:55:38;25.67;;;15.15;;
73869;SDS011;64924;42.140;24.762;2023-02-28T04:01:07;28.73;;;15.65;;
73869;SDS011;64924;42.140;24.762;2023-02-28T04:03:36;31.58;;;13.98;;
73869;SDS011;64924;42.140;24.762;2023-02-28T04:06:03;26.67;;;14.93;;
73869;SDS011;64924;42.140;24.762;2023-02-28T04:08:30;22.95;;;13.93;;
73869;SDS011;64924;42.140;24.762;2023-02-28T04:10:58;29.95;;;16.33;;
73869;SDS011;64924;42.140;24.762;2023-02-28T04:13:28;24.02;;;14.30;;
73869;SDS011;64924;42.140;24.762;2023-02-28T04:15:53;30.00;;;15.07;;
73869;SDS011;64924;42.140;24.762;2023-02-28T04:18:19;28.17;;;14.70;;
73869;SDS011;64924;42.140;24.762;2023-02-28T04:20:44;20.67;;;12.93;;
73869;SDS011;64924;42.140;24.762;2023-02-28T04:23:10;23.00;;;12.18;;
73869;SDS011;64924;42.140;24.762;2023-02-28T04:25:35;27.38;;;13.75;;
73869;SDS011;64924;42.140;24.762;2023-02-28T04:28:00;25.27;;;13.90;;
73869;SDS011;64924;42.140;24.762;2023-02-28T04:30:26;22.13;;;11.88;;
73869;SDS011;64924;42.140;24.762;2023-02-28T04:32:51;28.42;;;13.07;;
73869;SDS011;64924;42.140;24.762;2023-02-28T04:35:17;21.67;;;13.18;;
73869;SDS011;64924;42.140;24.762;2023-02-28T04:37:42;27.65;;;14.65;;
73869;SDS011;64924;42.140;24.762;2023-02-28T04:40:08;25.13;;;13.95;;
73869;SDS011;64924;42.140;24.762;2023-02-28T04:42:34;24.58;;;14.93;;
73869;SDS011;64924;42.140;24.762;2023-02-28T04:45:03;29.15;;;15.18;;
73869;SDS011;64924;42.140;24.762;2023-02-28T04:47:29;27.60;;;15.18;;
73869;SDS011;64924;42.140;24.762;2023-02-28T04:49:55;23.20;;;13.20;;
73869;SDS011;64924;42.140;24.762;2023-02-28T04:52:20;25.10;;;14.30;;
73869;SDS011;64924;42.140;24.762;2023-02-28T04:54:46;31.75;;;14.98;;
73869;SDS011;64924;42.140;24.762;2023-02-28T04:57:11;30.25;;;15.77;;
73869;SDS011;64924;42.140;24.762;2023-02-28T04:59:37;21.52;;;13.68;;
73869;SDS011;64924;42.140;24.762;2023-02-28T05:02:03;25.88;;;14.70;;
73869;SDS011;64924;42.140;24.762;2023-02-28T05:04:32;25.20;;;14.00;;
73869;SDS011;64924;42.140;24.762;2023-02-28T05:07:01;25.92;;;14.00;;
73869;SDS011;64924;42.140;24.762;2023-02-28T05:09:27;20.45;;;13.98;;
73869;SDS011;64924;42.140;24.762;2023-02-28T05:11:53;21.48;;;12.90;;
73869;SDS011;64924;42.140;24.762;2023-02-28T05:14:19;23.48;;;13.57;;
73869;SDS011;64924;42.140;24.762;2023-02-28T05:16:44;27.00;;;13.63;;
73869;SDS011;64924;42.140;24.762;2023-02-28T05:19:10;20.40;;;11.13;;
73869;SDS011;64924;42.140;24.762;2023-02-28T05:21:36;21.88;;;13.52;;
73869;SDS011;64924;42.140;24.762;2023-02-28T05:24:05;22.15;;;12.13;;
73869;SDS011;64924;42.140;24.762;2023-02-28T05:26:41;20.92;;;12.85;;
73869;SDS011;64924;42.140;24.762;2023-02-28T05:29:07;19.30;;;12.32;;
73869;SDS011;64924;42.140;24.762;2023-02-28T05:31:33;23.30;;;11.80;;
73869;SDS011;64924;42.140;24.762;2023-02-28T05:34:00;21.95;;;12.73;;
73869;SDS011;64924;42.140;24.762;2023-02-28T05:36:25;23.17;;;13.40;;
73869;SDS011;64924;42.140;24.762;2023-02-28T05:38:51;23.05;;;13.00;;
73869;SDS011;64924;42.140;24.762;2023-02-28T05:41:18;19.63;;;12.00;;
73869;SDS011;64924;42.140;24.762;2023-02-28T05:43:45;28.00;;;14.25;;
73869;SDS011;64924;42.140;24.762;2023-02-28T05:46:11;23.05;;;14.43;;
73869;SDS011;64924;42.140;24.762;2023-02-28T05:48:38;27.63;;;14.10;;
73869;SDS011;64924;42.140;24.762;2023-02-28T05:51:04;25.95;;;13.65;;
73869;SDS011;64924;42.140;24.762;2023-02-28T05:53:31;23.35;;;13.38;;
73869;SDS011;64924;42.140;24.762;2023-02-28T05:55:57;24.98;;;13.32;;
73869;SDS011;64924;42.140;24.762;2023-02-28T05:58:22;28.23;;;14.73;;
73869;SDS011;64924;42.140;24.762;2023-02-28T06:00:50;27.58;;;14.90;;
73869;SDS011;64924;42.140;24.762;2023-02-28T06:03:15;24.80;;;14.52;;
73869;SDS011;64924;42.140;24.762;2023-02-28T06:05:41;32.58;;;15.57;;
73869;SDS011;64924;42.140;24.762;2023-02-28T06:08:06;28.67;;;14.82;;
73869;SDS011;64924;42.140;24.762;2023-02-28T06:10:32;26.67;;;15.60;;
73869;SDS011;64924;42.140;24.762;2023-02-28T06:13:00;27.05;;;15.80;;
73869;SDS011;64924;42.140;24.762;2023-02-28T06:15:28;26.80;;;15.13;;
73869;SDS011;64924;42.140;24.762;2023-02-28T06:17:54;27.40;;;14.35;;
73869;SDS011;64924;42.140;24.762;2023-02-28T06:20:21;23.75;;;14.52;;
73869;SDS011;64924;42.140;24.762;2023-02-28T06:22:48;32.03;;;15.15;;
73869;SDS011;64924;42.140;24.762;2023-02-28T06:25:15;26.92;;;16.75;;
73869;SDS011;64924;42.140;24.762;2023-02-28T06:27:40;26.58;;;14.35;;
73869;SDS011;64924;42.140;24.762;2023-02-28T06:30:06;27.15;;;16.30;;
73869;SDS011;64924;42.140;24.762;2023-02-28T06:32:32;28.00;;;14.57;;
73869;SDS011;64924;42.140;24.762;2023-02-28T06:34:58;25.38;;;14.88;;
73869;SDS011;64924;42.140;24.762;2023-02-28T06:37:23;30.60;;;17.38;;
73869;SDS011;64924;42.140;24.762;2023-02-28T06:39:51;23.90;;;14.75;;
73869;SDS011;64924;42.140;24.762;2023-02-28T06:42:17;26.67;;;13.90;;
73869;SDS011;64924;42.140;24.762;2023-02-28T06:44:43;28.33;;;15.93;;
73869;SDS011;64924;42.140;24.762;2023-02-28T06:47:08;26.77;;;10.73;;
73869;SDS011;64924;42.140;24.762;2023-02-28T06:49:34;25.20;;;15.27;;
73869;SDS011;64924;42.140;24.762;2023-02-28T06:52:00;26.02;;;14.65;;
73869;SDS011;64924;42.140;24.762;2023-02-28T06:54:26;24.35;;;13.35;;
73869;SDS011;64924;42.140;24.762;2023-02-28T06:56:52;30.85;;;17.23;;
73869;SDS011;64924;42.140;24.762;2023-02-28T06:59:19;27.17;;;16.17;;
73869;SDS011;64924;42.140;24.762;2023-02-28T07:01:45;27.52;;;14.93;;
73869;SDS011;64924;42.140;24.762;2023-02-28T07:04:10;24.70;;;14.10;;
73869;SDS011;64924;42.140;24.762;2023-02-28T07:06:36;27.40;;;15.95;;
73869;SDS011;64924;42.140;24.762;2023-02-28T07:09:01;30.52;;;16.30;;
73869;SDS011;64924;42.140;24.762;2023-02-28T07:11:27;25.30;;;14.60;;
73869;SDS011;64924;42.140;24.762;2023-02-28T07:13:53;26.63;;;16.23;;
73869;SDS011;64924;42.140;24.762;2023-02-28T07:16:20;28.20;;;16.90;;
73869;SDS011;64924;42.140;24.762;2023-02-28T07:18:47;31.88;;;17.02;;
73869;SDS011;64924;42.140;24.762;2023-02-28T07:21:12;33.55;;;16.05;;
73869;SDS011;64924;42.140;24.762;2023-02-28T07:23:38;23.40;;;15.77;;
73869;SDS011;64924;42.140;24.762;2023-02-28T07:26:04;32.90;;;17.92;;
73869;SDS011;64924;42.140;24.762;2023-02-28T07:28:31;32.05;;;17.33;;
73869;SDS011;64924;42.140;24.762;2023-02-28T07:31:02;37.65;;;17.17;;
73869;SDS011;64924;42.140;24.762;2023-02-28T07:33:28;26.25;;;15.30;;
73869;SDS011;64924;42.140;24.762;2023-02-28T07:35:59;31.52;;;15.98;;
73869;SDS011;64924;42.140;24.762;2023-02-28T07:38:29;44.03;;;18.75;;
73869;SDS011;64924;42.140;24.762;2023-02-28T07:40:55;31.63;;;19.48;;
73869;SDS011;64924;42.140;24.762;2023-02-28T07:43:21;43.05;;;22.60;;
73869;SDS011;64924;42.140;24.762;2023-02-28T07:45:46;38.28;;;21.00;;
73869;SDS011;64924;42.140;24.762;2023-02-28T07:48:12;34.85;;;19.48;;
73869;SDS011;64924;42.140;24.762;2023-02-28T07:50:37;25.33;;;14.45;;
73869;SDS011;64924;42.140;24.762;2023-02-28T07:53:03;35.42;;;18.77;;
73869;SDS011;64924;42.140;24.762;2023-02-28T07:55:29;37.63;;;20.15;;
73869;SDS011;64924;42.140;24.762;2023-02-28T07:57:56;36.67;;;20.88;;
73869;SDS011;64924;42.140;24.762;2023-02-28T08:00:22;33.08;;;19.13;;
73869;SDS011;64924;42.140;24.762;2023-02-28T08:02:48;43.20;;;23.55;;
73869;SDS011;64924;42.140;24.762;2023-02-28T08:05:14;37.85;;;20.80;;
73869;SDS011;64924;42.140;24.762;2023-02-28T08:07:39;40.92;;;21.38;;
73869;SDS011;64924;42.140;24.762;2023-02-28T08:10:05;39.30;;;19.08;;
73869;SDS011;64924;42.140;24.762;2023-02-28T08:12:31;35.15;;;20.30;;
73869;SDS011;64924;42.140;24.762;2023-02-28T08:14:56;43.08;;;21.00;;
73869;SDS011;64924;42.140;24.762;2023-02-28T08:17:22;30.65;;;20.20;;
73869;SDS011;64924;42.140;24.762;2023-02-28T08:19:47;31.52;;;16.98;;
73869;SDS011;64924;42.140;24.762;2023-02-28T08:22:13;42.45;;;20.77;;
73869;SDS011;64924;42.140;24.762;2023-02-28T08:24:38;31.67;;;18.02;;
73869;SDS011;64924;42.140;24.762;2023-02-28T08:27:06;37.78;;;19.92;;
73869;SDS011;64924;42.140;24.762;2023-02-28T08:29:32;35.45;;;19.42;;
73869;SDS011;64924;42.140;24.762;2023-02-28T08:31:57;38.13;;;17.23;;
73869;SDS011;64924;42.140;24.762;2023-02-28T08:34:23;33.85;;;18.20;;
73869;SDS011;64924;42.140;24.762;2023-02-28T08:36:49;47.42;;;22.70;;
73869;SDS011;64924;42.140;24.762;2023-02-28T08:39:14;40.45;;;19.50;;
73869;SDS011;64924;42.140;24.762;2023-02-28T08:41:41;39.85;;;20.95;;
73869;SDS011;64924;42.140;24.762;2023-02-28T08:44:07;44.90;;;21.77;;
73869;SDS011;64924;42.140;24.762;2023-02-28T08:46:32;35.08;;;16.42;;
73869;SDS011;64924;42.140;24.762;2023-02-28T08:48:58;39.97;;;22.67;;
73869;SDS011;64924;42.140;24.762;2023-02-28T08:51:25;37.88;;;21.75;;
73869;SDS011;64924;42.140;24.762;2023-02-28T08:53:58;33.28;;;20.65;;
73869;SDS011;64924;42.140;24.762;2023-02-28T08:56:25;36.03;;;21.23;;
73869;SDS011;64924;42.140;24.762;2023-02-28T08:58:53;38.85;;;22.85;;
73869;SDS011;64924;42.140;24.762;2023-02-28T09:01:27;37.10;;;21.98;;
73869;SDS011;64924;42.140;24.762;2023-02-28T09:03:54;36.20;;;22.08;;
73869;SDS011;64924;42.140;24.762;2023-02-28T09:06:21;41.78;;;21.88;;
73869;SDS011;64924;42.140;24.762;2023-02-28T09:08:48;35.33;;;19.65;;
73869;SDS011;64924;42.140;24.762;2023-02-28T09:11:14;33.60;;;17.98;;
73869;SDS011;64924;42.140;24.762;2023-02-28T09:13:41;36.42;;;21.55;;
73869;SDS011;64924;42.140;24.762;2023-02-28T09:16:08;44.95;;;23.73;;
73869;SDS011;64924;42.140;24.762;2023-02-28T09:18:36;41.37;;;21.73;;
73869;SDS011;64924;42.140;24.762;2023-02-28T09:21:03;31.58;;;20.30;;
73869;SDS011;64924;42.140;24.762;2023-02-28T09:23:30;37.92;;;23.40;;
73869;SDS011;64924;42.140;24.762;2023-02-28T09:25:57;40.67;;;22.17;;
73869;SDS011;64924;42.140;24.762;2023-02-28T09:28:23;34.03;;;21.02;;
73869;SDS011;64924;42.140;24.762;2023-02-28T09:30:50;35.17;;;20.27;;
73869;SDS011;64924;42.140;24.762;2023-02-28T09:33:17;28.88;;;19.27;;
73869;SDS011;64924;42.140;24.762;2023-02-28T09:35:46;33.08;;;21.30;;
73869;SDS011;64924;42.140;24.762;2023-02-28T09:38:12;38.42;;;22.58;;
73869;SDS011;64924;42.140;24.762;2023-02-28T09:40:39;35.45;;;21.10;;
73869;SDS011;64924;42.140;24.762;2023-02-28T09:43:14;29.85;;;18.25;;
73869;SDS011;64924;42.140;24.762;2023-02-28T09:45:42;28.38;;;16.63;;
73869;SDS011;64924;42.140;24.762;2023-02-28T09:48:19;40.83;;;25.65;;
73869;SDS011;64924;42.140;24.762;2023-02-28T09:50:50;43.00;;;24.23;;
73869;SDS011;64924;42.140;24.762;2023-02-28T09:55:59;33.97;;;22.20;;
73869;SDS011;64924;42.140;24.762;2023-02-28T09:58:46;37.35;;;23.23;;
73869;SDS011;64924;42.140;24.762;2023-02-28T10:06:57;35.05;;;23.25;;
73869;SDS011;64924;42.140;24.762;2023-02-28T10:09:29;39.80;;;25.15;;
73869;SDS011;64924;42.140;24.762;2023-02-28T10:12:00;47.28;;;26.15;;
73869;SDS011;64924;42.140;24.762;2023-02-28T10:14:30;42.45;;;24.30;;
73869;SDS011;64924;42.140;24.762;2023-02-28T10:17:03;42.08;;;25.42;;
73869;SDS011;64924;42.140;24.762;2023-02-28T10:25:33;44.65;;;26.38;;
73869;SDS011;64924;42.140;24.762;2023-02-28T10:28:10;40.60;;;26.85;;
73869;SDS011;64924;42.140;24.762;2023-02-28T10:30:38;41.35;;;25.85;;
73869;SDS011;64924;42.140;24.762;2023-02-28T10:33:08;48.45;;;27.13;;
73869;SDS011;64924;42.140;24.762;2023-02-28T10:35:47;44.75;;;27.10;;
73869;SDS011;64924;42.140;24.762;2023-02-28T10:38:21;45.67;;;25.75;;
73869;SDS011;64924;42.140;24.762;2023-02-28T10:40:51;45.47;;;27.85;;
73869;SDS011;64924;42.140;24.762;2023-02-28T10:43:30;48.78;;;28.15;;
73869;SDS011;64924;42.140;24.762;2023-02-28T10:46:03;44.20;;;23.45;;
73869;SDS011;64924;42.140;24.762;2023-02-28T10:51:07;48.08;;;26.88;;
73869;SDS011;64924;42.140;24.762;2023-02-28T10:53:53;57.53;;;26.88;;
73869;SDS011;64924;42.140;24.762;2023-02-28T10:56:24;43.28;;;27.02;;
73869;SDS011;64924;42.140;24.762;2023-02-28T11:03:59;48.00;;;27.20;;
73869;SDS011;64924;42.140;24.762;2023-02-28T11:06:32;54.50;;;27.10;;
73869;SDS011;64924;42.140;24.762;2023-02-28T11:09:00;42.10;;;21.88;;
73869;SDS011;64924;42.140;24.762;2023-02-28T11:11:29;45.50;;;24.55;;
73869;SDS011;64924;42.140;24.762;2023-02-28T11:14:06;39.40;;;22.55;;
73869;SDS011;64924;42.140;24.762;2023-02-28T11:16:46;34.65;;;20.15;;
73869;SDS011;64924;42.140;24.762;2023-02-28T11:19:18;46.58;;;26.35;;
73869;SDS011;64924;42.140;24.762;2023-02-28T11:21:49;43.58;;;26.92;;
73869;SDS011;64924;42.140;24.762;2023-02-28T11:26:53;48.00;;;28.90;;
73869;SDS011;64924;42.140;24.762;2023-02-28T11:29:24;50.22;;;29.02;;
73869;SDS011;64924;42.140;24.762;2023-02-28T11:34:38;46.35;;;28.90;;
73869;SDS011;64924;42.140;24.762;2023-02-28T11:37:08;49.80;;;28.65;;
73869;SDS011;64924;42.140;24.762;2023-02-28T11:39:37;42.80;;;26.02;;
73869;SDS011;64924;42.140;24.762;2023-02-28T11:47:57;47.30;;;29.75;;
73869;SDS011;64924;42.140;24.762;2023-02-28T11:54:07;57.83;;;33.13;;
73869;SDS011;64924;42.140;24.762;2023-02-28T11:56:25;52.58;;;32.40;;
73869;SDS011;64924;42.140;24.762;2023-02-28T12:07:45;58.50;;;31.77;;
73869;SDS011;64924;42.140;24.762;2023-02-28T12:10:23;54.13;;;32.85;;
73869;SDS011;64924;42.140;24.762;2023-02-28T12:15:27;62.78;;;37.30;;
73869;SDS011;64924;42.140;24.762;2023-02-28T12:20:54;62.45;;;35.72;;
73869;SDS011;64924;42.140;24.762;2023-02-28T12:26:00;61.55;;;37.75;;
73869;SDS011;64924;42.140;24.762;2023-02-28T12:28:47;63.42;;;36.10;;
73869;SDS011;64924;42.140;24.762;2023-02-28T12:31:20;55.53;;;31.73;;
73869;SDS011;64924;42.140;24.762;2023-02-28T12:33:51;55.97;;;35.92;;
73869;SDS011;64924;42.140;24.762;2023-02-28T12:36:24;58.47;;;36.03;;
73869;SDS011;64924;42.140;24.762;2023-02-28T12:38:53;57.40;;;31.85;;
73869;SDS011;64924;42.140;24.762;2023-02-28T12:44:34;52.25;;;31.92;;
73869;SDS011;64924;42.140;24.762;2023-02-28T12:47:09;63.55;;;38.25;;
73869;SDS011;64924;42.140;24.762;2023-02-28T12:49:44;70.35;;;36.08;;
73869;SDS011;64924;42.140;24.762;2023-02-28T12:52:14;60.20;;;36.35;;
73869;SDS011;64924;42.140;24.762;2023-02-28T12:54:55;51.20;;;27.98;;
73869;SDS011;64924;42.140;24.762;2023-02-28T12:57:38;49.40;;;29.73;;
73869;SDS011;64924;42.140;24.762;2023-02-28T13:00:16;58.08;;;33.03;;
73869;SDS011;64924;42.140;24.762;2023-02-28T13:02:50;58.88;;;34.38;;
73869;SDS011;64924;42.140;24.762;2023-02-28T13:11:23;53.10;;;33.85;;
73869;SDS011;64924;42.140;24.762;2023-02-28T13:13:56;60.63;;;34.53;;
73869;SDS011;64924;42.140;24.762;2023-02-28T13:16:23;58.70;;;35.10;;
73869;SDS011;64924;42.140;24.762;2023-02-28T13:18:49;52.03;;;31.05;;
73869;SDS011;64924;42.140;24.762;2023-02-28T13:21:22;53.85;;;31.58;;
73869;SDS011;64924;42.140;24.762;2023-02-28T13:26:20;59.78;;;28.60;;
73869;SDS011;64924;42.140;24.762;2023-02-28T13:31:50;57.83;;;34.42;;
73869;SDS011;64924;42.140;24.762;2023-02-28T13:35:34;64.43;;;35.55;;
73869;SDS011;64924;42.140;24.762;2023-02-28T13:39:55;67.63;;;36.28;;
73869;SDS011;64924;42.140;24.762;2023-02-28T13:42:35;58.85;;;37.00;;
73869;SDS011;64924;42.140;24.762;2023-02-28T13:47:43;60.17;;;36.92;;
73869;SDS011;64924;42.140;24.762;2023-02-28T13:58:53;63.88;;;37.47;;
73869;SDS011;64924;42.140;24.762;2023-02-28T14:07:16;53.40;;;32.63;;
73869;SDS011;64924;42.140;24.762;2023-02-28T14:09:54;49.42;;;32.17;;
73869;SDS011;64924;42.140;24.762;2023-02-28T14:17:55;52.45;;;33.30;;
73869;SDS011;64924;42.140;24.762;2023-02-28T14:20:25;49.22;;;31.88;;
73869;SDS011;64924;42.140;24.762;2023-02-28T14:23:04;52.42;;;34.55;;
73869;SDS011;64924;42.140;24.762;2023-02-28T14:25:39;48.92;;;34.67;;
73869;SDS011;64924;42.140;24.762;2023-02-28T14:28:43;57.45;;;35.25;;
73869;SDS011;64924;42.140;24.762;2023-02-28T14:31:54;52.65;;;32.50;;
73869;SDS011;64924;42.140;24.762;2023-02-28T14:37:15;40.95;;;29.05;;
73869;SDS011;64924;42.140;24.762;2023-02-28T14:39:45;41.78;;;27.15;;
73869;SDS011;64924;42.140;24.762;2023-02-28T14:45:19;39.63;;;28.73;;
73869;SDS011;64924;42.140;24.762;2023-02-28T14:47:46;43.22;;;30.42;;
73869;SDS011;64924;42.140;24.762;2023-02-28T14:50:17;41.67;;;29.33;;
73869;SDS011;64924;42.140;24.762;2023-02-28T14:52:44;42.70;;;27.80;;
73869;SDS011;64924;42.140;24.762;2023-02-28T14:55:12;46.70;;;32.08;;
73869;SDS011;64924;42.140;24.762;2023-02-28T14:57:49;43.25;;;31.20;;
73869;SDS011;64924;42.140;24.762;2023-02-28T15:00:21;43.58;;;29.73;;
73869;SDS011;64924;42.140;24.762;2023-02-28T15:02:51;39.88;;;25.60;;
73869;SDS011;64924;42.140;24.762;2023-02-28T15:05:26;39.42;;;27.05;;
73869;SDS011;64924;42.140;24.762;2023-02-28T15:08:14;33.85;;;21.90;;
73869;SDS011;64924;42.140;24.762;2023-02-28T15:10:44;36.15;;;23.17;;
73869;SDS011;64924;42.140;24.762;2023-02-28T15:13:36;35.05;;;22.23;;
73869;SDS011;64924;42.140;24.762;2023-02-28T15:16:03;45.88;;;26.15;;
73869;SDS011;64924;42.140;24.762;2023-02-28T15:18:38;49.08;;;25.90;;
73869;SDS011;64924;42.140;24.762;2023-02-28T15:21:10;41.40;;;24.73;;
73869;SDS011;64924;42.140;24.762;2023-02-28T15:23:38;38.72;;;25.38;;
73869;SDS011;64924;42.140;24.762;2023-02-28T15:26:09;39.83;;;24.85;;
73869;SDS011;64924;42.140;24.762;2023-02-28T15:28:40;35.60;;;23.83;;
73869;SDS011;64924;42.140;24.762;2023-02-28T15:31:17;35.28;;;22.75;;
73869;SDS011;64924;42.140;24.762;2023-02-28T15:33:56;32.30;;;21.13;;
73869;SDS011;64924;42.140;24.762;2023-02-28T15:36:28;37.78;;;22.40;;
73869;SDS011;64924;42.140;24.762;2023-02-28T15:38:58;36.35;;;21.23;;
73869;SDS011;64924;42.140;24.762;2023-02-28T15:41:45;35.05;;;21.02;;
73869;SDS011;64924;42.140;24.762;2023-02-28T15:44:14;35.90;;;21.02;;
73869;SDS011;64924;42.140;24.762;2023-02-28T15:47:39;34.03;;;18.00;;
73869;SDS011;64924;42.140;24.762;2023-02-28T15:52:15;31.20;;;17.73;;
73869;SDS011;64924;42.140;24.762;2023-02-28T15:55:09;42.08;;;23.33;;
73869;SDS011;64924;42.140;24.762;2023-02-28T15:57:40;44.00;;;22.88;;
73869;SDS011;64924;42.140;24.762;2023-02-28T16:00:08;48.50;;;23.98;;
73869;SDS011;64924;42.140;24.762;2023-02-28T16:02:37;41.17;;;24.92;;
73869;SDS011;64924;42.140;24.762;2023-02-28T16:07:36;43.08;;;21.83;;
73869;SDS011;64924;42.140;24.762;2023-02-28T16:10:03;32.58;;;19.90;;
73869;SDS011;64924;42.140;24.762;2023-02-28T16:12:31;44.33;;;25.45;;
73869;SDS011;64924;42.140;24.762;2023-02-28T16:14:59;42.28;;;23.88;;
73869;SDS011;64924;42.140;24.762;2023-02-28T16:17:32;45.25;;;24.23;;
73869;SDS011;64924;42.140;24.762;2023-02-28T16:20:00;42.85;;;24.60;;
73869;SDS011;64924;42.140;24.762;2023-02-28T16:22:26;45.28;;;24.40;;
73869;SDS011;64924;42.140;24.762;2023-02-28T16:24:51;42.22;;;22.75;;
73869;SDS011;64924;42.140;24.762;2023-02-28T16:27:30;41.45;;;22.80;;
73869;SDS011;64924;42.140;24.762;2023-02-28T16:29:57;37.05;;;20.75;;
73869;SDS011;64924;42.140;24.762;2023-02-28T16:32:23;38.90;;;22.58;;
73869;SDS011;64924;42.140;24.762;2023-02-28T16:34:49;40.10;;;22.75;;
73869;SDS011;64924;42.140;24.762;2023-02-28T16:37:16;39.33;;;22.98;;
73869;SDS011;64924;42.140;24.762;2023-02-28T16:39:43;38.80;;;21.73;;
73869;SDS011;64924;42.140;24.762;2023-02-28T16:42:18;41.45;;;22.02;;
73869;SDS011;64924;42.140;24.762;2023-02-28T16:44:48;31.13;;;17.13;;
73869;SDS011;64924;42.140;24.762;2023-02-28T16:47:14;33.30;;;18.50;;
73869;SDS011;64924;42.140;24.762;2023-02-28T16:49:40;0.43;;;0.43;;
73869;SDS011;64924;42.140;24.762;2023-02-28T16:52:08;0.60;;;0.60;;
73869;SDS011;64924;42.140;24.762;2023-02-28T16:54:34;0.20;;;0.20;;
73869;SDS011;64924;42.140;24.762;2023-02-28T16:57:00;0.20;;;0.20;;